sensor_id;sensor_type;location;lat;lon;timestamp;pressure;altitude;pressure_sealevel;temperature;humidity
16431;BME280;8325;49.284;7.238;2022-10-17T04:02:08;99256.88;;;13.99;98.42
16431;BME280;8325;49.284;7.238;2022-10-17T04:06:20;99260.00;;;13.79;99.77
16431;BME280;8325;49.284;7.238;2022-10-17T04:10:32;99258.31;;;13.64;100.00
16431;BME280;8325;49.284;7.238;2022-10-17T04:14:44;99262.69;;;13.48;99.53
16431;BME280;8325;49.284;7.238;2022-10-17T04:18:57;99253.31;;;13.31;99.32
16431;BME280;8325;49.284;7.238;2022-10-17T04:23:11;99257.28;;;13.19;99.97
16431;BME280;8325;49.284;7.238;2022-10-17T04:27:24;99264.59;;;13.00;99.46
16431;BME280;8325;49.284;7.238;2022-10-17T04:31:37;99256.09;;;12.98;100.00
16431;BME280;8325;49.284;7.238;2022-10-17T04:36:00;99248.28;;;12.90;100.00
16431;BME280;8325;49.284;7.238;2022-10-17T04:40:13;99261.41;;;12.82;100.00
16431;BME280;8325;49.284;7.238;2022-10-17T04:44:25;99267.69;;;12.73;100.00
16431;BME280;8325;49.284;7.238;2022-10-17T04:48:37;99273.00;;;12.56;100.00
16431;BME280;8325;49.284;7.238;2022-10-17T04:52:49;99278.38;;;12.55;100.00
16431;BME280;8325;49.284;7.238;2022-10-17T04:57:01;99276.63;;;12.47;100.00
16431;BME280;8325;49.284;7.238;2022-10-17T05:01:16;99275.97;;;12.37;100.00
16431;BME280;8325;49.284;7.238;2022-10-17T05:05:36;99275.00;;;12.38;100.00
16431;BME280;8325;49.284;7.238;2022-10-17T05:09:48;99281.72;;;12.32;100.00
16431;BME280;8325;49.284;7.238;2022-10-17T05:14:01;99285.84;;;12.27;100.00
16431;BME280;8325;49.284;7.238;2022-10-17T05:18:15;99285.84;;;12.18;100.00
16431;BME280;8325;49.284;7.238;2022-10-17T05:22:27;99296.31;;;12.18;100.00
16431;BME280;8325;49.284;7.238;2022-10-17T05:26:41;99302.69;;;12.16;100.00
16431;BME280;8325;49.284;7.238;2022-10-17T05:30:52;99300.91;;;12.08;100.00
16431;BME280;8325;49.284;7.238;2022-10-17T05:35:04;99289.44;;;12.09;100.00
16431;BME280;8325;49.284;7.238;2022-10-17T05:39:17;99299.63;;;12.04;100.00
16431;BME280;8325;49.284;7.238;2022-10-17T05:43:32;99286.13;;;12.40;100.00
16431;BME280;8325;49.284;7.238;2022-10-17T05:47:44;99294.72;;;12.73;100.00
16431;BME280;8325;49.284;7.238;2022-10-17T05:51:55;99294.38;;;13.16;100.00
16431;BME280;8325;49.284;7.238;2022-10-17T05:56:10;99288.78;;;13.50;100.00
16431;BME280;8325;49.284;7.238;2022-10-17T06:00:23;99283.66;;;13.94;100.00
16431;BME280;8325;49.284;7.238;2022-10-17T06:04:41;99287.06;;;14.18;99.08
16431;BME280;8325;49.284;7.238;2022-10-17T06:08:57;99297.69;;;14.39;97.77
16431;BME280;8325;49.284;7.238;2022-10-17T06:13:16;99307.44;;;14.54;96.32
16431;BME280;8325;49.284;7.238;2022-10-17T06:17:31;99311.97;;;14.60;96.24
16431;BME280;8325;49.284;7.238;2022-10-17T06:21:43;99303.25;;;14.59;96.07
16431;BME280;8325;49.284;7.238;2022-10-17T06:26:04;99319.66;;;14.61;95.88
16431;BME280;8325;49.284;7.238;2022-10-17T06:30:16;99317.84;;;14.62;95.88
16431;BME280;8325;49.284;7.238;2022-10-17T06:34:29;99322.75;;;14.94;93.61
16431;BME280;8325;49.284;7.238;2022-10-17T06:38:40;99325.69;;;15.21;91.15
16431;BME280;8325;49.284;7.238;2022-10-17T06:43:01;99337.81;;;15.37;90.25
16431;BME280;8325;49.284;7.238;2022-10-17T06:47:31;99341.03;;;15.54;89.20
16431;BME280;8325;49.284;7.238;2022-10-17T06:51:50;99352.09;;;15.64;89.75
16431;BME280;8325;49.284;7.238;2022-10-17T06:56:07;99362.44;;;15.65;89.35
16431;BME280;8325;49.284;7.238;2022-10-17T07:00:51;99368.59;;;15.73;88.87
16431;BME280;8325;49.284;7.238;2022-10-17T07:05:09;99367.31;;;15.83;88.28
16431;BME280;8325;49.284;7.238;2022-10-17T07:09:21;99371.56;;;16.06;87.37
16431;BME280;8325;49.284;7.238;2022-10-17T07:13:33;99379.66;;;16.26;85.93
16431;BME280;8325;49.284;7.238;2022-10-17T07:17:50;99386.84;;;16.39;85.28
16431;BME280;8325;49.284;7.238;2022-10-17T07:22:03;99390.53;;;16.72;84.06
16431;BME280;8325;49.284;7.238;2022-10-17T07:26:17;99380.13;;;16.92;82.42
16431;BME280;8325;49.284;7.238;2022-10-17T07:30:31;99381.81;;;17.07;81.39
16431;BME280;8325;49.284;7.238;2022-10-17T07:34:48;99389.63;;;17.21;80.30
16431;BME280;8325;49.284;7.238;2022-10-17T07:38:59;99392.09;;;17.36;78.77
16431;BME280;8325;49.284;7.238;2022-10-17T07:43:12;99399.41;;;17.34;80.80
16431;BME280;8325;49.284;7.238;2022-10-17T07:47:24;99412.03;;;17.45;79.22
16431;BME280;8325;49.284;7.238;2022-10-17T07:51:37;99408.44;;;17.53;78.69
16431;BME280;8325;49.284;7.238;2022-10-17T07:55:48;99398.28;;;17.63;78.25
16431;BME280;8325;49.284;7.238;2022-10-17T08:00:01;99399.31;;;17.62;78.76
16431;BME280;8325;49.284;7.238;2022-10-17T08:04:22;99397.50;;;17.76;77.49
16431;BME280;8325;49.284;7.238;2022-10-17T08:08:34;99398.16;;;17.85;77.13
16431;BME280;8325;49.284;7.238;2022-10-17T08:12:46;99402.66;;;17.91;78.09
16431;BME280;8325;49.284;7.238;2022-10-17T08:16:57;99409.38;;;18.00;77.28
16431;BME280;8325;49.284;7.238;2022-10-17T08:21:10;99410.22;;;18.14;77.20
16431;BME280;8325;49.284;7.238;2022-10-17T08:25:23;99407.00;;;18.32;75.61
16431;BME280;8325;49.284;7.238;2022-10-17T08:29:35;99407.78;;;18.39;75.07
16431;BME280;8325;49.284;7.238;2022-10-17T08:33:48;99406.56;;;18.48;74.60
16431;BME280;8325;49.284;7.238;2022-10-17T08:38:00;99406.16;;;18.64;74.65
16431;BME280;8325;49.284;7.238;2022-10-17T08:47:20;99420.78;;;18.87;72.81
16431;BME280;8325;49.284;7.238;2022-10-17T08:51:35;99413.06;;;18.85;73.33
16431;BME280;8325;49.284;7.238;2022-10-17T08:55:52;99423.66;;;18.92;73.02
16431;BME280;8325;49.284;7.238;2022-10-17T09:00:21;99418.13;;;19.00;71.69
16431;BME280;8325;49.284;7.238;2022-10-17T09:09:18;99421.56;;;19.07;72.92
16431;BME280;8325;49.284;7.238;2022-10-17T09:18:32;99424.38;;;19.26;71.96
16431;BME280;8325;49.284;7.238;2022-10-17T09:22:51;99433.72;;;19.35;73.07
16431;BME280;8325;49.284;7.238;2022-10-17T09:27:56;99437.53;;;19.52;72.58
16431;BME280;8325;49.284;7.238;2022-10-17T09:31:47;99449.53;;;19.62;71.68
16431;BME280;8325;49.284;7.238;2022-10-17T09:36:04;99461.31;;;19.72;71.97
16431;BME280;8325;49.284;7.238;2022-10-17T09:40:26;99467.00;;;19.76;71.18
16431;BME280;8325;49.284;7.238;2022-10-17T09:44:54;99472.25;;;19.89;71.12
16431;BME280;8325;49.284;7.238;2022-10-17T09:49:16;99469.34;;;19.97;71.03
16431;BME280;8325;49.284;7.238;2022-10-17T09:53:33;99473.31;;;20.13;70.46
16431;BME280;8325;49.284;7.238;2022-10-17T09:57:55;99463.13;;;20.17;70.75
16431;BME280;8325;49.284;7.238;2022-10-17T10:02:17;99475.38;;;20.11;69.77
16431;BME280;8325;49.284;7.238;2022-10-17T10:06:29;99486.38;;;20.15;70.14
16431;BME280;8325;49.284;7.238;2022-10-17T10:10:41;99487.53;;;20.26;70.25
16431;BME280;8325;49.284;7.238;2022-10-17T10:14:53;99486.28;;;20.28;70.84
16431;BME280;8325;49.284;7.238;2022-10-17T10:19:20;99483.56;;;20.41;70.78
16431;BME280;8325;49.284;7.238;2022-10-17T10:23:32;99494.53;;;20.52;71.05
16431;BME280;8325;49.284;7.238;2022-10-17T10:27:45;99497.50;;;20.62;70.79
16431;BME280;8325;49.284;7.238;2022-10-17T10:36:17;99500.22;;;20.80;69.80
16431;BME280;8325;49.284;7.238;2022-10-17T10:40:38;99503.06;;;20.85;69.79
16431;BME280;8325;49.284;7.238;2022-10-17T10:45:13;99519.28;;;20.96;69.29
16431;BME280;8325;49.284;7.238;2022-10-17T10:49:40;99517.19;;;21.04;70.32
16431;BME280;8325;49.284;7.238;2022-10-17T10:58:27;99517.41;;;21.21;68.42
16431;BME280;8325;49.284;7.238;2022-10-17T11:02:50;99523.13;;;21.25;67.94
16431;BME280;8325;49.284;7.238;2022-10-17T11:11:38;99502.94;;;21.42;68.19
16431;BME280;8325;49.284;7.238;2022-10-17T11:16:26;99512.66;;;21.48;67.55
16431;BME280;8325;49.284;7.238;2022-10-17T11:20:54;99523.75;;;21.64;68.07
16431;BME280;8325;49.284;7.238;2022-10-17T11:29:32;99511.94;;;21.78;67.23
16431;BME280;8325;49.284;7.238;2022-10-17T11:33:49;99526.00;;;21.97;67.87
16431;BME280;8325;49.284;7.238;2022-10-17T11:38:05;99521.09;;;22.12;66.72
16431;BME280;8325;49.284;7.238;2022-10-17T11:42:52;99525.78;;;22.17;66.57
16431;BME280;8325;49.284;7.238;2022-10-17T11:51:44;99511.94;;;22.26;66.10
16431;BME280;8325;49.284;7.238;2022-10-17T11:56:17;99507.88;;;22.24;65.74
16431;BME280;8325;49.284;7.238;2022-10-17T12:00:53;99507.88;;;22.24;65.63
16431;BME280;8325;49.284;7.238;2022-10-17T12:05:26;99502.75;;;22.22;65.56
16431;BME280;8325;49.284;7.238;2022-10-17T12:14:00;99514.72;;;22.32;66.15
16431;BME280;8325;49.284;7.238;2022-10-17T12:18:16;99512.94;;;22.25;66.37
16431;BME280;8325;49.284;7.238;2022-10-17T12:22:28;99506.72;;;22.32;66.69
16431;BME280;8325;49.284;7.238;2022-10-17T12:26:39;99507.91;;;22.36;66.58
16431;BME280;8325;49.284;7.238;2022-10-17T12:30:55;99506.53;;;22.45;67.26
16431;BME280;8325;49.284;7.238;2022-10-17T12:35:18;99503.06;;;22.44;65.84
16431;BME280;8325;49.284;7.238;2022-10-17T12:43:50;99500.34;;;22.21;66.31
16431;BME280;8325;49.284;7.238;2022-10-17T12:48:02;99498.97;;;22.30;67.01
16431;BME280;8325;49.284;7.238;2022-10-17T12:52:24;99504.06;;;22.32;66.51
16431;BME280;8325;49.284;7.238;2022-10-17T12:56:41;99508.25;;;22.39;66.76
16431;BME280;8325;49.284;7.238;2022-10-17T13:00:54;99497.06;;;22.49;66.82
16431;BME280;8325;49.284;7.238;2022-10-17T13:05:33;99499.72;;;22.49;66.51
16431;BME280;8325;49.284;7.238;2022-10-17T13:09:46;99499.03;;;22.53;65.41
16431;BME280;8325;49.284;7.238;2022-10-17T13:14:01;99510.16;;;22.62;65.70
16431;BME280;8325;49.284;7.238;2022-10-17T13:18:23;99502.97;;;22.63;65.53
16431;BME280;8325;49.284;7.238;2022-10-17T13:22:43;99512.72;;;22.57;66.10
16431;BME280;8325;49.284;7.238;2022-10-17T13:26:55;99514.78;;;22.55;65.85
16431;BME280;8325;49.284;7.238;2022-10-17T13:31:26;99511.97;;;22.50;65.97
16431;BME280;8325;49.284;7.238;2022-10-17T13:35:39;99518.09;;;22.50;66.50
16431;BME280;8325;49.284;7.238;2022-10-17T13:40:25;99526.09;;;22.50;66.30
16431;BME280;8325;49.284;7.238;2022-10-17T13:44:57;99521.59;;;22.51;66.22
16431;BME280;8325;49.284;7.238;2022-10-17T13:49:22;99511.97;;;22.50;66.03
16431;BME280;8325;49.284;7.238;2022-10-17T13:53:39;99519.16;;;22.49;66.27
16431;BME280;8325;49.284;7.238;2022-10-17T13:57:54;99527.00;;;22.33;66.25
16431;BME280;8325;49.284;7.238;2022-10-17T14:02:13;99527.00;;;22.14;66.54
16431;BME280;8325;49.284;7.238;2022-10-17T14:06:27;99524.94;;;21.86;67.96
16431;BME280;8325;49.284;7.238;2022-10-17T14:10:41;99527.16;;;21.71;68.99
16431;BME280;8325;49.284;7.238;2022-10-17T14:14:53;99528.47;;;21.80;69.11
16431;BME280;8325;49.284;7.238;2022-10-17T14:19:31;99535.47;;;21.93;68.81
16431;BME280;8325;49.284;7.238;2022-10-17T14:23:43;99527.63;;;21.98;67.29
16431;BME280;8325;49.284;7.238;2022-10-17T14:32:20;99526.81;;;21.97;67.98
16431;BME280;8325;49.284;7.238;2022-10-17T14:36:37;99530.28;;;21.98;67.32
16431;BME280;8325;49.284;7.238;2022-10-17T14:41:29;99531.50;;;21.83;67.03
16431;BME280;8325;49.284;7.238;2022-10-17T14:46:01;99531.94;;;21.80;67.97
16431;BME280;8325;49.284;7.238;2022-10-17T14:54:27;99533.38;;;21.65;68.90
16431;BME280;8325;49.284;7.238;2022-10-17T14:58:40;99551.44;;;21.56;69.81
16431;BME280;8325;49.284;7.238;2022-10-17T15:02:53;99549.81;;;21.55;70.44
16431;BME280;8325;49.284;7.238;2022-10-17T15:07:06;99546.56;;;21.53;70.22
16431;BME280;8325;49.284;7.238;2022-10-17T15:11:17;99552.59;;;21.42;70.06
16431;BME280;8325;49.284;7.238;2022-10-17T15:15:29;99556.75;;;21.37;70.32
16431;BME280;8325;49.284;7.238;2022-10-17T15:19:41;99567.78;;;21.34;71.02
16431;BME280;8325;49.284;7.238;2022-10-17T15:23:53;99570.28;;;21.29;71.25
16431;BME280;8325;49.284;7.238;2022-10-17T15:28:05;99571.75;;;21.25;71.26
16431;BME280;8325;49.284;7.238;2022-10-17T15:32:16;99580.44;;;21.14;72.29
16431;BME280;8325;49.284;7.238;2022-10-17T15:36:31;99577.47;;;21.04;73.06
16431;BME280;8325;49.284;7.238;2022-10-17T15:40:44;99587.78;;;20.87;73.86
16431;BME280;8325;49.284;7.238;2022-10-17T15:44:59;99588.94;;;20.73;75.60
16431;BME280;8325;49.284;7.238;2022-10-17T15:49:12;99588.19;;;20.59;75.90
16431;BME280;8325;49.284;7.238;2022-10-17T15:53:24;99589.84;;;20.46;77.27
16431;BME280;8325;49.284;7.238;2022-10-17T15:57:41;99589.94;;;20.33;78.03
16431;BME280;8325;49.284;7.238;2022-10-17T16:01:54;99587.09;;;20.28;78.05
16431;BME280;8325;49.284;7.238;2022-10-17T16:06:06;99586.94;;;20.23;77.39
16431;BME280;8325;49.284;7.238;2022-10-17T16:10:24;99592.06;;;20.18;77.81
16431;BME280;8325;49.284;7.238;2022-10-17T16:14:36;99599.81;;;20.13;77.98
16431;BME280;8325;49.284;7.238;2022-10-17T16:18:48;99600.06;;;20.05;78.74
16431;BME280;8325;49.284;7.238;2022-10-17T16:22:59;99602.56;;;19.93;79.80
16431;BME280;8325;49.284;7.238;2022-10-17T16:27:13;99607.28;;;19.77;81.75
16431;BME280;8325;49.284;7.238;2022-10-17T16:31:27;99606.06;;;19.60;83.55
16431;BME280;8325;49.284;7.238;2022-10-17T16:35:39;99601.41;;;19.42;85.62
16431;BME280;8325;49.284;7.238;2022-10-17T16:39:51;99603.03;;;19.23;86.82
16431;BME280;8325;49.284;7.238;2022-10-17T16:44:06;99600.41;;;19.10;87.31
16431;BME280;8325;49.284;7.238;2022-10-17T16:48:18;99604.28;;;18.94;88.36
16431;BME280;8325;49.284;7.238;2022-10-17T16:52:30;99603.66;;;18.79;88.77
16431;BME280;8325;49.284;7.238;2022-10-17T16:56:42;99613.34;;;18.65;89.75
16431;BME280;8325;49.284;7.238;2022-10-17T17:00:54;99613.94;;;18.54;91.29
16431;BME280;8325;49.284;7.238;2022-10-17T17:05:06;99620.63;;;18.43;91.76
16431;BME280;8325;49.284;7.238;2022-10-17T17:09:17;99617.53;;;18.33;93.11
16431;BME280;8325;49.284;7.238;2022-10-17T17:13:29;99631.56;;;18.27;92.95
16431;BME280;8325;49.284;7.238;2022-10-17T17:17:40;99628.06;;;18.20;93.83
16431;BME280;8325;49.284;7.238;2022-10-17T17:22:02;99630.66;;;18.13;94.42
16431;BME280;8325;49.284;7.238;2022-10-17T17:26:20;99629.44;;;18.09;94.97
16431;BME280;8325;49.284;7.238;2022-10-17T17:30:33;99637.34;;;18.02;95.42
16431;BME280;8325;49.284;7.238;2022-10-17T17:34:44;99633.06;;;18.01;95.54
16431;BME280;8325;49.284;7.238;2022-10-17T17:38:57;99641.16;;;17.93;95.70
16431;BME280;8325;49.284;7.238;2022-10-17T17:43:09;99633.38;;;17.85;96.10
16431;BME280;8325;49.284;7.238;2022-10-17T17:47:21;99630.88;;;17.77;96.68
16431;BME280;8325;49.284;7.238;2022-10-17T17:51:32;99646.66;;;17.70;96.65
16431;BME280;8325;49.284;7.238;2022-10-17T17:55:45;99652.31;;;17.67;97.79
16431;BME280;8325;49.284;7.238;2022-10-17T17:59:56;99659.00;;;17.63;98.29
16431;BME280;8325;49.284;7.238;2022-10-17T18:04:08;99654.38;;;17.65;97.30
16431;BME280;8325;49.284;7.238;2022-10-17T18:08:20;99688.13;;;17.69;97.86
16431;BME280;8325;49.284;7.238;2022-10-17T18:12:31;99681.28;;;17.54;99.63
16431;BME280;8325;49.284;7.238;2022-10-17T18:16:44;99688.19;;;17.55;99.04
16431;BME280;8325;49.284;7.238;2022-10-17T18:20:59;99681.97;;;17.62;98.30
16431;BME280;8325;49.284;7.238;2022-10-17T18:25:11;99684.88;;;17.67;97.43
16431;BME280;8325;49.284;7.238;2022-10-17T18:29:23;99681.63;;;17.72;96.83
16431;BME280;8325;49.284;7.238;2022-10-17T18:33:34;99684.09;;;17.74;96.82
16431;BME280;8325;49.284;7.238;2022-10-17T18:37:46;99685.72;;;17.75;97.52
16431;BME280;8325;49.284;7.238;2022-10-17T18:41:57;99687.34;;;17.76;97.07
16431;BME280;8325;49.284;7.238;2022-10-17T18:46:23;99681.47;;;17.74;97.18
16431;BME280;8325;49.284;7.238;2022-10-17T18:50:37;99683.22;;;17.66;98.05
16431;BME280;8325;49.284;7.238;2022-10-17T18:54:49;99676.69;;;17.62;98.16
16431;BME280;8325;49.284;7.238;2022-10-17T18:59:00;99678.69;;;17.60;98.22
16431;BME280;8325;49.284;7.238;2022-10-17T19:03:12;99679.09;;;17.57;98.21
16431;BME280;8325;49.284;7.238;2022-10-17T19:07:23;99683.94;;;17.54;98.43
16431;BME280;8325;49.284;7.238;2022-10-17T19:11:36;99684.69;;;17.47;99.39
16431;BME280;8325;49.284;7.238;2022-10-17T19:15:48;99681.25;;;17.47;99.26
16431;BME280;8325;49.284;7.238;2022-10-17T19:19:59;99676.16;;;17.45;99.27
16431;BME280;8325;49.284;7.238;2022-10-17T19:24:29;99673.72;;;17.44;99.64
16431;BME280;8325;49.284;7.238;2022-10-17T19:28:41;99674.53;;;17.44;99.39
16431;BME280;8325;49.284;7.238;2022-10-17T19:32:53;99664.09;;;17.36;100.00
16431;BME280;8325;49.284;7.238;2022-10-17T19:37:04;99654.28;;;17.30;100.00
16431;BME280;8325;49.284;7.238;2022-10-17T19:41:16;99652.78;;;17.21;100.00
16431;BME280;8325;49.284;7.238;2022-10-17T19:45:27;99650.91;;;17.15;100.00
16431;BME280;8325;49.284;7.238;2022-10-17T19:49:39;99659.41;;;17.10;100.00
16431;BME280;8325;49.284;7.238;2022-10-17T19:53:52;99654.06;;;17.03;100.00
16431;BME280;8325;49.284;7.238;2022-10-17T19:58:04;99647.34;;;17.01;100.00
16431;BME280;8325;49.284;7.238;2022-10-17T20:02:15;99649.97;;;17.01;100.00
16431;BME280;8325;49.284;7.238;2022-10-17T20:06:27;99644.91;;;16.99;100.00
16431;BME280;8325;49.284;7.238;2022-10-17T20:10:39;99645.44;;;16.95;100.00
16431;BME280;8325;49.284;7.238;2022-10-17T20:14:50;99649.28;;;16.92;100.00
16431;BME280;8325;49.284;7.238;2022-10-17T20:19:05;99654.56;;;16.92;100.00
16431;BME280;8325;49.284;7.238;2022-10-17T20:23:18;99658.22;;;16.91;100.00
16431;BME280;8325;49.284;7.238;2022-10-17T20:27:29;99663.66;;;16.90;100.00
16431;BME280;8325;49.284;7.238;2022-10-17T20:31:42;99671.19;;;16.93;100.00
16431;BME280;8325;49.284;7.238;2022-10-17T20:35:54;99671.19;;;16.93;100.00
16431;BME280;8325;49.284;7.238;2022-10-17T20:40:06;99671.41;;;16.91;100.00
16431;BME280;8325;49.284;7.238;2022-10-17T20:44:37;99672.41;;;16.90;100.00
16431;BME280;8325;49.284;7.238;2022-10-17T20:48:53;99674.84;;;16.92;100.00
16431;BME280;8325;49.284;7.238;2022-10-17T20:53:04;99678.06;;;16.87;100.00
16431;BME280;8325;49.284;7.238;2022-10-17T20:57:36;99680.50;;;16.89;100.00
16431;BME280;8325;49.284;7.238;2022-10-17T21:01:48;99687.78;;;16.87;100.00
16431;BME280;8325;49.284;7.238;2022-10-17T21:05:59;99687.97;;;16.85;100.00
16431;BME280;8325;49.284;7.238;2022-10-17T21:10:11;99691.81;;;16.83;100.00
16431;BME280;8325;49.284;7.238;2022-10-17T21:14:42;99699.06;;;16.80;100.00
16431;BME280;8325;49.284;7.238;2022-10-17T21:18:55;99700.28;;;16.78;100.00
16431;BME280;8325;49.284;7.238;2022-10-17T21:23:06;99701.09;;;16.78;100.00
16431;BME280;8325;49.284;7.238;2022-10-17T21:27:18;99697.66;;;16.78;100.00
